sensor_id;sensor_type;location;lat;lon;timestamp;P1;durP1;ratioP1;P2;durP2;ratioP2
40637;SDS011;26336;44.696;10.622;2022-08-25T00:03:02;3.35;;;1.70;;
40637;SDS011;26336;44.696;10.622;2022-08-25T00:06:06;1.77;;;1.67;;
40637;SDS011;26336;44.696;10.622;2022-08-25T00:09:12;4.15;;;1.80;;
40637;SDS011;26336;44.696;10.622;2022-08-25T00:12:19;2.80;;;1.58;;
40637;SDS011;26336;44.696;10.622;2022-08-25T00:15:24;4.03;;;1.63;;
40637;SDS011;26336;44.696;10.622;2022-08-25T00:18:28;2.28;;;1.55;;
40637;SDS011;26336;44.696;10.622;2022-08-25T00:21:35;2.03;;;1.20;;
40637;SDS011;26336;44.696;10.622;2022-08-25T00:24:40;1.50;;;1.40;;
40637;SDS011;26336;44.696;10.622;2022-08-25T00:27:44;1.55;;;1.30;;
40637;SDS011;26336;44.696;10.622;2022-08-25T00:30:50;2.05;;;1.58;;
40637;SDS011;26336;44.696;10.622;2022-08-25T00:33:54;2.58;;;1.80;;
40637;SDS011;26336;44.696;10.622;2022-08-25T00:37:00;2.15;;;1.70;;
40637;SDS011;26336;44.696;10.622;2022-08-25T00:40:05;2.58;;;1.52;;
40637;SDS011;26336;44.696;10.622;2022-08-25T00:43:11;3.40;;;1.60;;
40637;SDS011;26336;44.696;10.622;2022-08-25T00:46:20;2.22;;;1.40;;
40637;SDS011;26336;44.696;10.622;2022-08-25T00:52:41;3.83;;;1.30;;
40637;SDS011;26336;44.696;10.622;2022-08-25T00:55:48;2.35;;;1.50;;
40637;SDS011;26336;44.696;10.622;2022-08-25T00:58:53;2.88;;;1.48;;
40637;SDS011;26336;44.696;10.622;2022-08-25T01:01:57;2.05;;;1.77;;
40637;SDS011;26336;44.696;10.622;2022-08-25T01:05:02;1.75;;;1.38;;
40637;SDS011;26336;44.696;10.622;2022-08-25T01:08:06;2.42;;;1.30;;
40637;SDS011;26336;44.696;10.622;2022-08-25T01:11:11;1.67;;;1.50;;
40637;SDS011;26336;44.696;10.622;2022-08-25T01:14:16;3.40;;;1.70;;
40637;SDS011;26336;44.696;10.622;2022-08-25T01:17:22;2.88;;;1.38;;
40637;SDS011;26336;44.696;10.622;2022-08-25T01:20:30;4.40;;;1.60;;
40637;SDS011;26336;44.696;10.622;2022-08-25T01:23:35;2.90;;;1.48;;
40637;SDS011;26336;44.696;10.622;2022-08-25T01:26:39;2.17;;;1.45;;
40637;SDS011;26336;44.696;10.622;2022-08-25T01:29:44;3.15;;;1.88;;
40637;SDS011;26336;44.696;10.622;2022-08-25T01:32:48;1.50;;;1.40;;
40637;SDS011;26336;44.696;10.622;2022-08-25T01:35:52;3.22;;;1.98;;
40637;SDS011;26336;44.696;10.622;2022-08-25T01:38:57;1.50;;;1.38;;
40637;SDS011;26336;44.696;10.622;2022-08-25T01:42:07;1.65;;;1.55;;
40637;SDS011;26336;44.696;10.622;2022-08-25T01:45:16;2.50;;;1.73;;
40637;SDS011;26336;44.696;10.622;2022-08-25T01:48:21;3.45;;;2.08;;
40637;SDS011;26336;44.696;10.622;2022-08-25T01:51:25;1.77;;;1.52;;
40637;SDS011;26336;44.696;10.622;2022-08-25T01:54:32;3.17;;;1.85;;
40637;SDS011;26336;44.696;10.622;2022-08-25T01:57:36;2.15;;;1.60;;
40637;SDS011;26336;44.696;10.622;2022-08-25T02:00:43;4.75;;;1.83;;
40637;SDS011;26336;44.696;10.622;2022-08-25T02:03:50;2.72;;;2.03;;
40637;SDS011;26336;44.696;10.622;2022-08-25T02:06:55;1.90;;;1.65;;
40637;SDS011;26336;44.696;10.622;2022-08-25T02:09:59;1.90;;;1.52;;
40637;SDS011;26336;44.696;10.622;2022-08-25T02:13:07;1.90;;;1.70;;
40637;SDS011;26336;44.696;10.622;2022-08-25T02:16:13;3.30;;;1.70;;
40637;SDS011;26336;44.696;10.622;2022-08-25T02:19:21;2.85;;;1.83;;
40637;SDS011;26336;44.696;10.622;2022-08-25T02:22:26;2.42;;;1.90;;
40637;SDS011;26336;44.696;10.622;2022-08-25T02:25:31;2.60;;;1.70;;
40637;SDS011;26336;44.696;10.622;2022-08-25T02:28:36;2.10;;;1.90;;
40637;SDS011;26336;44.696;10.622;2022-08-25T02:31:40;1.95;;;1.75;;
40637;SDS011;26336;44.696;10.622;2022-08-25T02:34:47;2.17;;;1.48;;
40637;SDS011;26336;44.696;10.622;2022-08-25T02:37:50;2.22;;;1.90;;
40637;SDS011;26336;44.696;10.622;2022-08-25T02:40:58;3.28;;;1.75;;
40637;SDS011;26336;44.696;10.622;2022-08-25T02:44:03;1.75;;;1.65;;
40637;SDS011;26336;44.696;10.622;2022-08-25T02:47:09;3.25;;;1.80;;
40637;SDS011;26336;44.696;10.622;2022-08-25T02:50:13;3.88;;;2.00;;
40637;SDS011;26336;44.696;10.622;2022-08-25T02:53:20;2.63;;;1.70;;
40637;SDS011;26336;44.696;10.622;2022-08-25T02:56:24;3.33;;;1.90;;
40637;SDS011;26336;44.696;10.622;2022-08-25T02:59:28;2.50;;;1.63;;
40637;SDS011;26336;44.696;10.622;2022-08-25T03:02:32;3.45;;;1.98;;
40637;SDS011;26336;44.696;10.622;2022-08-25T03:05:36;2.25;;;1.70;;
40637;SDS011;26336;44.696;10.622;2022-08-25T03:08:41;2.33;;;1.63;;
40637;SDS011;26336;44.696;10.622;2022-08-25T03:11:45;1.70;;;1.60;;
40637;SDS011;26336;44.696;10.622;2022-08-25T03:14:49;4.45;;;2.20;;
40637;SDS011;26336;44.696;10.622;2022-08-25T03:17:53;3.58;;;2.00;;
40637;SDS011;26336;44.696;10.622;2022-08-25T03:20:58;7.18;;;2.38;;
40637;SDS011;26336;44.696;10.622;2022-08-25T03:24:02;4.10;;;2.55;;
40637;SDS011;26336;44.696;10.622;2022-08-25T03:27:06;4.28;;;2.28;;
40637;SDS011;26336;44.696;10.622;2022-08-25T03:30:11;7.50;;;3.00;;
40637;SDS011;26336;44.696;10.622;2022-08-25T03:33:15;4.18;;;3.38;;
40637;SDS011;26336;44.696;10.622;2022-08-25T03:36:19;4.32;;;3.40;;
40637;SDS011;26336;44.696;10.622;2022-08-25T03:39:23;6.65;;;4.30;;
40637;SDS011;26336;44.696;10.622;2022-08-25T03:42:28;4.75;;;4.22;;
40637;SDS011;26336;44.696;10.622;2022-08-25T03:45:32;4.60;;;3.92;;
40637;SDS011;26336;44.696;10.622;2022-08-25T03:48:36;5.15;;;4.00;;
40637;SDS011;26336;44.696;10.622;2022-08-25T03:51:41;6.43;;;4.57;;
40637;SDS011;26336;44.696;10.622;2022-08-25T03:54:48;4.50;;;3.92;;
40637;SDS011;26336;44.696;10.622;2022-08-25T03:57:52;4.55;;;3.83;;
40637;SDS011;26336;44.696;10.622;2022-08-25T04:00:57;5.47;;;3.72;;
40637;SDS011;26336;44.696;10.622;2022-08-25T04:04:02;3.70;;;3.30;;
40637;SDS011;26336;44.696;10.622;2022-08-25T04:07:07;6.05;;;3.40;;
40637;SDS011;26336;44.696;10.622;2022-08-25T04:10:11;4.47;;;3.33;;
40637;SDS011;26336;44.696;10.622;2022-08-25T04:13:16;4.05;;;3.42;;
40637;SDS011;26336;44.696;10.622;2022-08-25T04:16:24;4.15;;;3.17;;
40637;SDS011;26336;44.696;10.622;2022-08-25T04:19:33;3.85;;;3.20;;
40637;SDS011;26336;44.696;10.622;2022-08-25T04:22:38;4.20;;;3.78;;
40637;SDS011;26336;44.696;10.622;2022-08-25T04:25:41;4.30;;;3.03;;
40637;SDS011;26336;44.696;10.622;2022-08-25T04:28:45;4.00;;;3.42;;
40637;SDS011;26336;44.696;10.622;2022-08-25T04:31:50;4.85;;;3.33;;
40637;SDS011;26336;44.696;10.622;2022-08-25T04:34:56;3.83;;;3.00;;
40637;SDS011;26336;44.696;10.622;2022-08-25T04:37:59;3.97;;;3.22;;
40637;SDS011;26336;44.696;10.622;2022-08-25T04:41:07;5.60;;;3.67;;
40637;SDS011;26336;44.696;10.622;2022-08-25T04:44:12;5.03;;;3.05;;
40637;SDS011;26336;44.696;10.622;2022-08-25T04:47:16;3.95;;;2.80;;
40637;SDS011;26336;44.696;10.622;2022-08-25T04:50:20;5.35;;;3.30;;
40637;SDS011;26336;44.696;10.622;2022-08-25T04:53:24;4.15;;;3.45;;
40637;SDS011;26336;44.696;10.622;2022-08-25T04:56:28;4.78;;;3.70;;
40637;SDS011;26336;44.696;10.622;2022-08-25T04:59:32;5.75;;;3.53;;
40637;SDS011;26336;44.696;10.622;2022-08-25T05:02:37;5.57;;;3.47;;
40637;SDS011;26336;44.696;10.622;2022-08-25T05:05:41;3.75;;;3.35;;
40637;SDS011;26336;44.696;10.622;2022-08-25T05:08:45;4.53;;;3.40;;
40637;SDS011;26336;44.696;10.622;2022-08-25T05:11:48;3.65;;;3.28;;
40637;SDS011;26336;44.696;10.622;2022-08-25T05:14:52;4.43;;;3.63;;
40637;SDS011;26336;44.696;10.622;2022-08-25T05:17:57;4.18;;;3.55;;
40637;SDS011;26336;44.696;10.622;2022-08-25T05:21:06;5.72;;;3.67;;
40637;SDS011;26336;44.696;10.622;2022-08-25T05:24:14;4.60;;;3.17;;
40637;SDS011;26336;44.696;10.622;2022-08-25T05:27:21;8.25;;;3.72;;
40637;SDS011;26336;44.696;10.622;2022-08-25T05:30:25;5.90;;;3.90;;
40637;SDS011;26336;44.696;10.622;2022-08-25T05:33:30;6.85;;;3.53;;
40637;SDS011;26336;44.696;10.622;2022-08-25T05:36:34;5.80;;;3.85;;
40637;SDS011;26336;44.696;10.622;2022-08-25T05:39:38;6.20;;;3.85;;
40637;SDS011;26336;44.696;10.622;2022-08-25T05:42:42;5.65;;;3.38;;
40637;SDS011;26336;44.696;10.622;2022-08-25T05:45:52;4.97;;;3.58;;
40637;SDS011;26336;44.696;10.622;2022-08-25T05:48:57;5.28;;;3.28;;
40637;SDS011;26336;44.696;10.622;2022-08-25T05:52:02;4.72;;;2.85;;
40637;SDS011;26336;44.696;10.622;2022-08-25T05:55:07;4.30;;;2.97;;
40637;SDS011;26336;44.696;10.622;2022-08-25T05:58:11;3.60;;;3.08;;
40637;SDS011;26336;44.696;10.622;2022-08-25T06:01:26;6.95;;;3.35;;
40637;SDS011;26336;44.696;10.622;2022-08-25T06:04:49;4.20;;;2.72;;
40637;SDS011;26336;44.696;10.622;2022-08-25T06:07:54;3.95;;;3.30;;
40637;SDS011;26336;44.696;10.622;2022-08-25T06:10:58;3.17;;;2.42;;
40637;SDS011;26336;44.696;10.622;2022-08-25T06:14:03;6.43;;;3.30;;
40637;SDS011;26336;44.696;10.622;2022-08-25T06:17:07;4.82;;;3.17;;
40637;SDS011;26336;44.696;10.622;2022-08-25T06:20:12;3.90;;;2.60;;
40637;SDS011;26336;44.696;10.622;2022-08-25T06:23:19;4.78;;;3.35;;
40637;SDS011;26336;44.696;10.622;2022-08-25T06:26:23;4.93;;;3.33;;
40637;SDS011;26336;44.696;10.622;2022-08-25T06:29:27;4.63;;;3.38;;
40637;SDS011;26336;44.696;10.622;2022-08-25T06:32:32;4.60;;;3.38;;
40637;SDS011;26336;44.696;10.622;2022-08-25T06:35:41;6.00;;;3.38;;
40637;SDS011;26336;44.696;10.622;2022-08-25T06:38:46;4.28;;;2.72;;
40637;SDS011;26336;44.696;10.622;2022-08-25T06:41:52;3.20;;;2.75;;
40637;SDS011;26336;44.696;10.622;2022-08-25T06:45:02;6.93;;;3.30;;
40637;SDS011;26336;44.696;10.622;2022-08-25T06:48:07;3.55;;;2.90;;
40637;SDS011;26336;44.696;10.622;2022-08-25T06:51:11;3.45;;;2.75;;
40637;SDS011;26336;44.696;10.622;2022-08-25T06:54:17;5.72;;;2.80;;
40637;SDS011;26336;44.696;10.622;2022-08-25T06:57:21;6.00;;;3.17;;
40637;SDS011;26336;44.696;10.622;2022-08-25T07:00:25;4.72;;;2.95;;
40637;SDS011;26336;44.696;10.622;2022-08-25T07:03:37;3.00;;;2.40;;
40637;SDS011;26336;44.696;10.622;2022-08-25T07:06:41;4.28;;;2.65;;
40637;SDS011;26336;44.696;10.622;2022-08-25T07:09:44;4.22;;;2.45;;
40637;SDS011;26336;44.696;10.622;2022-08-25T07:12:48;4.28;;;3.25;;
40637;SDS011;26336;44.696;10.622;2022-08-25T07:15:54;2.90;;;2.60;;
40637;SDS011;26336;44.696;10.622;2022-08-25T07:18:58;3.50;;;2.80;;
40637;SDS011;26336;44.696;10.622;2022-08-25T07:22:09;5.05;;;3.35;;
40637;SDS011;26336;44.696;10.622;2022-08-25T07:25:13;5.85;;;3.33;;
40637;SDS011;26336;44.696;10.622;2022-08-25T07:28:17;3.50;;;2.83;;
40637;SDS011;26336;44.696;10.622;2022-08-25T07:31:23;3.85;;;2.75;;
40637;SDS011;26336;44.696;10.622;2022-08-25T07:34:27;4.25;;;2.75;;
40637;SDS011;26336;44.696;10.622;2022-08-25T07:37:54;5.35;;;2.60;;
40637;SDS011;26336;44.696;10.622;2022-08-25T07:41:02;3.03;;;2.72;;
40637;SDS011;26336;44.696;10.622;2022-08-25T07:44:07;4.30;;;2.53;;
40637;SDS011;26336;44.696;10.622;2022-08-25T07:47:15;2.35;;;2.08;;
40637;SDS011;26336;44.696;10.622;2022-08-25T07:50:19;3.17;;;2.20;;
40637;SDS011;26336;44.696;10.622;2022-08-25T07:53:24;5.18;;;2.25;;
40637;SDS011;26336;44.696;10.622;2022-08-25T07:56:28;4.28;;;2.40;;
40637;SDS011;26336;44.696;10.622;2022-08-25T07:59:33;3.30;;;2.80;;
40637;SDS011;26336;44.696;10.622;2022-08-25T08:02:38;5.22;;;2.35;;
40637;SDS011;26336;44.696;10.622;2022-08-25T08:05:42;3.40;;;2.53;;
40637;SDS011;26336;44.696;10.622;2022-08-25T08:08:50;3.22;;;2.20;;
40637;SDS011;26336;44.696;10.622;2022-08-25T08:11:56;5.15;;;2.70;;
40637;SDS011;26336;44.696;10.622;2022-08-25T08:15:03;5.00;;;2.83;;
40637;SDS011;26336;44.696;10.622;2022-08-25T08:18:09;4.07;;;2.25;;
40637;SDS011;26336;44.696;10.622;2022-08-25T08:21:15;2.72;;;2.17;;
40637;SDS011;26336;44.696;10.622;2022-08-25T08:24:22;2.72;;;2.20;;
40637;SDS011;26336;44.696;10.622;2022-08-25T08:27:26;2.72;;;2.22;;
40637;SDS011;26336;44.696;10.622;2022-08-25T08:30:30;3.38;;;2.42;;
40637;SDS011;26336;44.696;10.622;2022-08-25T08:33:34;2.50;;;2.13;;
40637;SDS011;26336;44.696;10.622;2022-08-25T08:36:38;3.17;;;2.08;;
40637;SDS011;26336;44.696;10.622;2022-08-25T08:39:43;4.20;;;2.58;;
40637;SDS011;26336;44.696;10.622;2022-08-25T08:43:07;3.97;;;2.58;;
40637;SDS011;26336;44.696;10.622;2022-08-25T08:46:22;3.90;;;2.33;;
40637;SDS011;26336;44.696;10.622;2022-08-25T08:49:36;2.40;;;2.17;;
40637;SDS011;26336;44.696;10.622;2022-08-25T08:52:57;3.63;;;2.50;;
40637;SDS011;26336;44.696;10.622;2022-08-25T08:56:24;4.30;;;2.40;;
40637;SDS011;26336;44.696;10.622;2022-08-25T08:59:37;2.90;;;2.28;;
40637;SDS011;26336;44.696;10.622;2022-08-25T09:06:12;3.63;;;2.40;;
40637;SDS011;26336;44.696;10.622;2022-08-25T09:09:26;3.80;;;2.53;;
40637;SDS011;26336;44.696;10.622;2022-08-25T09:15:47;5.38;;;2.03;;
40637;SDS011;26336;44.696;10.622;2022-08-25T09:22:47;5.28;;;2.30;;
40637;SDS011;26336;44.696;10.622;2022-08-25T09:26:09;2.53;;;2.00;;
40637;SDS011;26336;44.696;10.622;2022-08-25T09:29:24;2.60;;;2.40;;
40637;SDS011;26336;44.696;10.622;2022-08-25T09:32:56;2.88;;;2.45;;
40637;SDS011;26336;44.696;10.622;2022-08-25T09:36:06;4.32;;;2.85;;
40637;SDS011;26336;44.696;10.622;2022-08-25T09:39:10;4.30;;;2.67;;
40637;SDS011;26336;44.696;10.622;2022-08-25T09:42:14;4.07;;;2.60;;
40637;SDS011;26336;44.696;10.622;2022-08-25T09:45:37;2.65;;;2.45;;
40637;SDS011;26336;44.696;10.622;2022-08-25T09:51:49;2.50;;;2.30;;
40637;SDS011;26336;44.696;10.622;2022-08-25T09:54:54;3.08;;;2.35;;
40637;SDS011;26336;44.696;10.622;2022-08-25T09:57:59;3.47;;;2.83;;
40637;SDS011;26336;44.696;10.622;2022-08-25T10:04:25;2.45;;;2.25;;
40637;SDS011;26336;44.696;10.622;2022-08-25T10:10:45;2.50;;;2.30;;
40637;SDS011;26336;44.696;10.622;2022-08-25T10:14:05;2.17;;;1.98;;
40637;SDS011;26336;44.696;10.622;2022-08-25T10:17:26;4.43;;;2.83;;
40637;SDS011;26336;44.696;10.622;2022-08-25T10:20:31;4.80;;;2.80;;
40637;SDS011;26336;44.696;10.622;2022-08-25T10:23:41;3.40;;;2.78;;
40637;SDS011;26336;44.696;10.622;2022-08-25T10:30:22;4.30;;;3.00;;
40637;SDS011;26336;44.696;10.622;2022-08-25T10:33:44;3.60;;;2.42;;
40637;SDS011;26336;44.696;10.622;2022-08-25T10:43:38;4.20;;;2.72;;
40637;SDS011;26336;44.696;10.622;2022-08-25T10:47:08;3.95;;;2.42;;
40637;SDS011;26336;44.696;10.622;2022-08-25T10:53:39;4.22;;;3.03;;
40637;SDS011;26336;44.696;10.622;2022-08-25T11:00:09;2.47;;;2.15;;
40637;SDS011;26336;44.696;10.622;2022-08-25T11:06:24;4.07;;;2.63;;
40637;SDS011;26336;44.696;10.622;2022-08-25T11:09:49;3.80;;;2.63;;
40637;SDS011;26336;44.696;10.622;2022-08-25T11:12:57;5.90;;;2.65;;
40637;SDS011;26336;44.696;10.622;2022-08-25T11:16:07;3.60;;;2.80;;
40637;SDS011;26336;44.696;10.622;2022-08-25T11:19:35;3.15;;;2.85;;
40637;SDS011;26336;44.696;10.622;2022-08-25T11:22:43;4.47;;;3.00;;
40637;SDS011;26336;44.696;10.622;2022-08-25T11:25:56;4.40;;;2.85;;
40637;SDS011;26336;44.696;10.622;2022-08-25T11:29:05;4.13;;;2.77;;
40637;SDS011;26336;44.696;10.622;2022-08-25T11:32:17;4.07;;;2.80;;
40637;SDS011;26336;44.696;10.622;2022-08-25T11:35:36;4.50;;;2.80;;
40637;SDS011;26336;44.696;10.622;2022-08-25T11:46:24;5.10;;;3.15;;
40637;SDS011;26336;44.696;10.622;2022-08-25T11:52:54;4.55;;;3.08;;
40637;SDS011;26336;44.696;10.622;2022-08-25T11:56:04;5.22;;;3.10;;
40637;SDS011;26336;44.696;10.622;2022-08-25T11:59:11;4.22;;;2.22;;
40637;SDS011;26336;44.696;10.622;2022-08-25T12:05:50;4.78;;;2.63;;
40637;SDS011;26336;44.696;10.622;2022-08-25T12:09:15;4.93;;;2.75;;
40637;SDS011;26336;44.696;10.622;2022-08-25T12:18:50;4.97;;;2.50;;
40637;SDS011;26336;44.696;10.622;2022-08-25T12:22:40;3.90;;;3.30;;
40637;SDS011;26336;44.696;10.622;2022-08-25T12:25:37;6.20;;;2.60;;
40637;SDS011;26336;44.696;10.622;2022-08-25T12:28:51;4.15;;;3.08;;
40637;SDS011;26336;44.696;10.622;2022-08-25T12:35:38;4.20;;;2.60;;
40637;SDS011;26336;44.696;10.622;2022-08-25T12:38:46;3.13;;;2.40;;
40637;SDS011;26336;44.696;10.622;2022-08-25T12:41:53;3.50;;;2.30;;
40637;SDS011;26336;44.696;10.622;2022-08-25T12:45:10;4.80;;;2.75;;
40637;SDS011;26336;44.696;10.622;2022-08-25T12:54:46;4.63;;;3.05;;
40637;SDS011;26336;44.696;10.622;2022-08-25T12:57:55;4.05;;;2.88;;
40637;SDS011;26336;44.696;10.622;2022-08-25T13:01:16;3.65;;;2.63;;
40637;SDS011;26336;44.696;10.622;2022-08-25T13:11:12;3.50;;;2.55;;
40637;SDS011;26336;44.696;10.622;2022-08-25T13:14:31;6.18;;;3.00;;
40637;SDS011;26336;44.696;10.622;2022-08-25T13:17:40;5.07;;;2.72;;
40637;SDS011;26336;44.696;10.622;2022-08-25T13:20:45;3.28;;;2.80;;
40637;SDS011;26336;44.696;10.622;2022-08-25T13:23:52;5.03;;;2.75;;
40637;SDS011;26336;44.696;10.622;2022-08-25T13:27:07;4.28;;;3.63;;
40637;SDS011;26336;44.696;10.622;2022-08-25T13:30:28;4.63;;;2.80;;
40637;SDS011;26336;44.696;10.622;2022-08-25T13:33:35;5.28;;;3.35;;
40637;SDS011;26336;44.696;10.622;2022-08-25T13:36:43;5.60;;;2.78;;
40637;SDS011;26336;44.696;10.622;2022-08-25T13:43:24;4.07;;;2.83;;
40637;SDS011;26336;44.696;10.622;2022-08-25T13:46:28;3.97;;;3.00;;
40637;SDS011;26336;44.696;10.622;2022-08-25T13:49:32;4.40;;;3.15;;
40637;SDS011;26336;44.696;10.622;2022-08-25T13:52:40;3.10;;;2.65;;
40637;SDS011;26336;44.696;10.622;2022-08-25T13:58:47;6.20;;;2.95;;
40637;SDS011;26336;44.696;10.622;2022-08-25T14:01:53;3.72;;;3.33;;
40637;SDS011;26336;44.696;10.622;2022-08-25T14:04:58;3.17;;;2.75;;
40637;SDS011;26336;44.696;10.622;2022-08-25T14:08:03;2.95;;;2.65;;
40637;SDS011;26336;44.696;10.622;2022-08-25T14:11:12;4.25;;;3.20;;
40637;SDS011;26336;44.696;10.622;2022-08-25T14:14:37;4.10;;;2.85;;
40637;SDS011;26336;44.696;10.622;2022-08-25T14:17:42;5.15;;;2.97;;
40637;SDS011;26336;44.696;10.622;2022-08-25T14:20:51;3.58;;;2.72;;
40637;SDS011;26336;44.696;10.622;2022-08-25T14:23:56;4.57;;;3.03;;
40637;SDS011;26336;44.696;10.622;2022-08-25T14:27:05;3.03;;;2.72;;
40637;SDS011;26336;44.696;10.622;2022-08-25T14:30:09;3.20;;;2.70;;
40637;SDS011;26336;44.696;10.622;2022-08-25T14:33:14;5.00;;;2.88;;
40637;SDS011;26336;44.696;10.622;2022-08-25T14:36:20;3.30;;;2.38;;
40637;SDS011;26336;44.696;10.622;2022-08-25T14:39:24;4.07;;;2.55;;
40637;SDS011;26336;44.696;10.622;2022-08-25T14:42:28;4.55;;;3.05;;
40637;SDS011;26336;44.696;10.622;2022-08-25T14:45:39;3.88;;;2.58;;
40637;SDS011;26336;44.696;10.622;2022-08-25T14:48:52;6.43;;;3.00;;
40637;SDS011;26336;44.696;10.622;2022-08-25T14:55:07;3.67;;;2.60;;
40637;SDS011;26336;44.696;10.622;2022-08-25T14:58:12;2.85;;;2.58;;
40637;SDS011;26336;44.696;10.622;2022-08-25T15:01:17;4.72;;;2.83;;
40637;SDS011;26336;44.696;10.622;2022-08-25T15:04:24;4.88;;;3.10;;
40637;SDS011;26336;44.696;10.622;2022-08-25T15:07:31;6.80;;;2.90;;
40637;SDS011;26336;44.696;10.622;2022-08-25T15:10:55;5.10;;;2.75;;
40637;SDS011;26336;44.696;10.622;2022-08-25T15:14:00;5.68;;;3.35;;
40637;SDS011;26336;44.696;10.622;2022-08-25T15:17:04;4.80;;;3.00;;
40637;SDS011;26336;44.696;10.622;2022-08-25T15:20:10;2.72;;;2.53;;
40637;SDS011;26336;44.696;10.622;2022-08-25T15:23:14;5.15;;;3.00;;
40637;SDS011;26336;44.696;10.622;2022-08-25T15:26:18;3.30;;;3.00;;
40637;SDS011;26336;44.696;10.622;2022-08-25T15:29:23;5.45;;;3.38;;
40637;SDS011;26336;44.696;10.622;2022-08-25T15:32:29;3.53;;;3.10;;
40637;SDS011;26336;44.696;10.622;2022-08-25T15:35:34;3.20;;;2.78;;
40637;SDS011;26336;44.696;10.622;2022-08-25T15:38:39;4.22;;;3.05;;
40637;SDS011;26336;44.696;10.622;2022-08-25T15:41:47;4.72;;;3.35;;
40637;SDS011;26336;44.696;10.622;2022-08-25T15:44:54;5.20;;;2.88;;
40637;SDS011;26336;44.696;10.622;2022-08-25T15:47:58;3.20;;;2.90;;
40637;SDS011;26336;44.696;10.622;2022-08-25T15:51:02;5.55;;;3.20;;
40637;SDS011;26336;44.696;10.622;2022-08-25T15:54:07;5.25;;;3.03;;
40637;SDS011;26336;44.696;10.622;2022-08-25T15:57:11;4.20;;;3.10;;
40637;SDS011;26336;44.696;10.622;2022-08-25T16:00:15;7.45;;;2.95;;
40637;SDS011;26336;44.696;10.622;2022-08-25T16:03:20;6.15;;;3.42;;
40637;SDS011;26336;44.696;10.622;2022-08-25T16:06:25;3.55;;;3.25;;
40637;SDS011;26336;44.696;10.622;2022-08-25T16:09:29;13.25;;;2.80;;
40637;SDS011;26336;44.696;10.622;2022-08-25T16:12:33;5.38;;;2.92;;
40637;SDS011;26336;44.696;10.622;2022-08-25T16:15:38;7.88;;;3.42;;
40637;SDS011;26336;44.696;10.622;2022-08-25T16:18:42;4.07;;;3.00;;
40637;SDS011;26336;44.696;10.622;2022-08-25T16:21:50;5.32;;;2.97;;
40637;SDS011;26336;44.696;10.622;2022-08-25T16:24:54;4.47;;;3.30;;
40637;SDS011;26336;44.696;10.622;2022-08-25T16:27:58;5.80;;;3.10;;
40637;SDS011;26336;44.696;10.622;2022-08-25T16:31:03;5.20;;;3.22;;
40637;SDS011;26336;44.696;10.622;2022-08-25T16:34:08;6.07;;;3.13;;
40637;SDS011;26336;44.696;10.622;2022-08-25T16:37:13;6.20;;;3.22;;
40637;SDS011;26336;44.696;10.622;2022-08-25T16:40:17;4.15;;;3.20;;
40637;SDS011;26336;44.696;10.622;2022-08-25T16:43:25;3.40;;;2.80;;
40637;SDS011;26336;44.696;10.622;2022-08-25T16:46:29;5.50;;;3.03;;
40637;SDS011;26336;44.696;10.622;2022-08-25T16:49:33;7.20;;;3.35;;
40637;SDS011;26336;44.696;10.622;2022-08-25T16:52:37;2.97;;;2.67;;
40637;SDS011;26336;44.696;10.622;2022-08-25T16:56:01;6.00;;;3.90;;
40637;SDS011;26336;44.696;10.622;2022-08-25T16:59:09;5.07;;;3.10;;
40637;SDS011;26336;44.696;10.622;2022-08-25T17:02:13;6.10;;;4.68;;
40637;SDS011;26336;44.696;10.622;2022-08-25T17:05:17;4.40;;;3.97;;
40637;SDS011;26336;44.696;10.622;2022-08-25T17:08:21;5.75;;;3.28;;
40637;SDS011;26336;44.696;10.622;2022-08-25T17:11:33;4.10;;;3.08;;
40637;SDS011;26336;44.696;10.622;2022-08-25T17:14:39;7.78;;;3.33;;
40637;SDS011;26336;44.696;10.622;2022-08-25T17:17:47;4.28;;;2.58;;
40637;SDS011;26336;44.696;10.622;2022-08-25T17:20:58;5.60;;;3.10;;
40637;SDS011;26336;44.696;10.622;2022-08-25T17:24:10;3.90;;;2.70;;
40637;SDS011;26336;44.696;10.622;2022-08-25T17:27:15;3.85;;;3.08;;
40637;SDS011;26336;44.696;10.622;2022-08-25T17:30:20;5.28;;;3.60;;
40637;SDS011;26336;44.696;10.622;2022-08-25T17:33:24;6.85;;;5.43;;
40637;SDS011;26336;44.696;10.622;2022-08-25T17:36:30;3.55;;;3.25;;
40637;SDS011;26336;44.696;10.622;2022-08-25T17:39:34;5.07;;;3.55;;
40637;SDS011;26336;44.696;10.622;2022-08-25T17:42:38;4.47;;;3.05;;
40637;SDS011;26336;44.696;10.622;2022-08-25T17:45:44;4.50;;;2.85;;
40637;SDS011;26336;44.696;10.622;2022-08-25T17:48:48;4.85;;;3.05;;
40637;SDS011;26336;44.696;10.622;2022-08-25T17:51:53;4.43;;;2.97;;
40637;SDS011;26336;44.696;10.622;2022-08-25T17:54:57;4.78;;;3.42;;
40637;SDS011;26336;44.696;10.622;2022-08-25T17:58:03;4.18;;;2.42;;
40637;SDS011;26336;44.696;10.622;2022-08-25T18:01:18;6.00;;;2.80;;
40637;SDS011;26336;44.696;10.622;2022-08-25T18:04:25;5.85;;;2.80;;
40637;SDS011;26336;44.696;10.622;2022-08-25T18:07:30;4.10;;;3.05;;
40637;SDS011;26336;44.696;10.622;2022-08-25T18:10:34;3.17;;;2.88;;
40637;SDS011;26336;44.696;10.622;2022-08-25T18:13:39;3.55;;;2.95;;
40637;SDS011;26336;44.696;10.622;2022-08-25T18:16:44;4.60;;;3.00;;
40637;SDS011;26336;44.696;10.622;2022-08-25T18:19:48;3.75;;;3.30;;
40637;SDS011;26336;44.696;10.622;2022-08-25T18:22:55;5.57;;;2.75;;
40637;SDS011;26336;44.696;10.622;2022-08-25T18:26:01;8.02;;;3.67;;
40637;SDS011;26336;44.696;10.622;2022-08-25T18:29:05;6.55;;;3.08;;
40637;SDS011;26336;44.696;10.622;2022-08-25T18:32:11;5.55;;;3.55;;
40637;SDS011;26336;44.696;10.622;2022-08-25T18:35:16;9.15;;;4.10;;
40637;SDS011;26336;44.696;10.622;2022-08-25T18:38:21;5.20;;;3.72;;
40637;SDS011;26336;44.696;10.622;2022-08-25T18:41:43;4.38;;;3.50;;
40637;SDS011;26336;44.696;10.622;2022-08-25T18:44:47;7.32;;;3.63;;
40637;SDS011;26336;44.696;10.622;2022-08-25T18:47:52;5.50;;;3.97;;
40637;SDS011;26336;44.696;10.622;2022-08-25T18:50:59;8.73;;;3.25;;
40637;SDS011;26336;44.696;10.622;2022-08-25T18:54:04;6.88;;;3.67;;
40637;SDS011;26336;44.696;10.622;2022-08-25T18:57:08;6.72;;;3.85;;
40637;SDS011;26336;44.696;10.622;2022-08-25T19:00:15;5.88;;;3.25;;
40637;SDS011;26336;44.696;10.622;2022-08-25T19:03:20;11.00;;;3.90;;
40637;SDS011;26336;44.696;10.622;2022-08-25T19:06:26;5.60;;;4.20;;
40637;SDS011;26336;44.696;10.622;2022-08-25T19:09:32;6.15;;;3.55;;
40637;SDS011;26336;44.696;10.622;2022-08-25T19:12:44;8.23;;;4.47;;
40637;SDS011;26336;44.696;10.622;2022-08-25T19:15:52;6.13;;;4.15;;
40637;SDS011;26336;44.696;10.622;2022-08-25T19:18:56;5.65;;;3.33;;
40637;SDS011;26336;44.696;10.622;2022-08-25T19:22:00;12.50;;;4.55;;
40637;SDS011;26336;44.696;10.622;2022-08-25T19:25:08;7.20;;;3.55;;
40637;SDS011;26336;44.696;10.622;2022-08-25T19:28:13;6.28;;;4.22;;
40637;SDS011;26336;44.696;10.622;2022-08-25T19:31:19;6.68;;;3.67;;
40637;SDS011;26336;44.696;10.622;2022-08-25T19:34:28;6.80;;;3.70;;
40637;SDS011;26336;44.696;10.622;2022-08-25T19:37:34;6.93;;;4.10;;
40637;SDS011;26336;44.696;10.622;2022-08-25T19:40:49;6.43;;;3.83;;
40637;SDS011;26336;44.696;10.622;2022-08-25T19:43:57;4.60;;;3.67;;
40637;SDS011;26336;44.696;10.622;2022-08-25T19:47:02;5.32;;;3.83;;
40637;SDS011;26336;44.696;10.622;2022-08-25T19:50:07;7.20;;;4.13;;
40637;SDS011;26336;44.696;10.622;2022-08-25T19:53:13;8.32;;;3.97;;
40637;SDS011;26336;44.696;10.622;2022-08-25T19:56:17;4.95;;;3.97;;
40637;SDS011;26336;44.696;10.622;2022-08-25T19:59:23;6.53;;;4.38;;
40637;SDS011;26336;44.696;10.622;2022-08-25T20:02:28;6.97;;;4.10;;